Time;durP1;ratioP1;P1;durP2;ratioP2;P2;SDS_P1;SDS_P2;PMS_P1;PMS_P2;Temp;Humidity;BMP_temperature;BMP_pressure;BME280_temperature;BME280_humidity;BME280_pressure;Samples;Min_cycle;Max_cycle;Signal;HPM_P1;HPM_P2
2021/05/05 03:00:21;;;;;;;4.53;3.37;;;;;;;7.46;100.00;100445.28;1739742;79;21216;31
2021/05/05 03:02:49;;;;;;;5.62;3.60;;;;;;;8.42;100.00;100443.44;1714612;82;21239;-66
2021/05/05 03:05:17;;;;;;;8.40;4.12;;;;;;;9.15;100.00;100442.42;1718518;82;21200;-65
2021/05/05 03:07:45;;;;;;;6.60;4.80;;;;;;;9.78;100.00;100448.94;1716633;82;21094;-65
2021/05/05 03:10:13;;;;;;;7.60;4.20;;;;;;;10.41;100.00;100443.39;1707670;82;23493;-64
2021/05/05 03:12:42;;;;;;;6.30;3.77;;;;;;;11.06;100.00;100446.30;1715927;82;21447;-66
2021/05/05 03:15:11;;;;;;;5.30;3.47;;;;;;;11.71;96.75;100443.35;1716947;82;21479;-65
2021/05/05 03:17:39;;;;;;;5.77;3.10;;;;;;;12.31;87.34;100444.70;1719791;81;21527;-65
2021/05/05 03:20:10;;;;;;;4.83;2.83;;;;;;;12.88;77.50;100442.38;1718563;81;21912;-66
2021/05/05 03:22:38;;;;;;;4.20;2.70;;;;;;;13.56;71.10;100451.61;1714698;82;21888;-67
2021/05/05 03:25:08;;;;;;;4.83;2.57;;;;;;;14.42;63.41;100453.52;1717341;82;21266;-69
2021/05/05 03:27:37;;;;;;;5.10;2.80;;;;;;;15.27;56.72;100453.84;1717653;82;21085;-66
2021/05/05 03:30:06;;;;;;;4.57;2.77;;;;;;;16.14;53.05;100453.31;1722487;81;21646;-66
2021/05/05 03:32:35;;;;;;;4.77;2.90;;;;;;;17.04;49.63;100452.38;1717351;82;20947;-66
2021/05/05 03:35:05;;;;;;;4.10;2.60;;;;;;;17.97;46.06;100448.52;1717617;82;21514;-65
2021/05/05 03:37:33;;;;;;;4.77;2.77;;;;;;;18.75;42.87;100450.03;1717428;82;21097;-65
2021/05/05 03:40:05;;;;;;;4.43;2.87;;;;;;;19.42;40.53;100446.86;1717953;82;21002;-65
2021/05/05 03:42:33;;;;;;;4.97;2.55;;;;;;;20.00;38.37;100448.94;1711057;81;21077;-66
2021/05/05 03:45:04;;;;;;;5.77;2.90;;;;;;;20.47;37.03;100453.89;1717979;82;21744;-66
2021/05/05 03:47:33;;;;;;;4.27;2.70;;;;;;;20.83;35.77;100449.88;1716835;81;21699;-66
2021/05/05 03:50:05;;;;;;;4.33;2.80;;;;;;;21.13;34.55;100453.42;1717919;82;21173;-65
2021/05/05 03:52:34;;;;;;;5.63;2.57;;;;;;;21.31;33.82;100458.41;1717558;82;20959;-65
2021/05/05 03:55:03;;;;;;;4.43;2.80;;;;;;;21.56;32.96;100451.27;1717879;82;21125;-66
2021/05/05 03:57:32;;;;;;;5.97;2.90;;;;;;;21.83;32.51;100453.89;1718541;81;21132;-66
2021/05/05 04:00:01;;;;;;;4.90;2.60;;;;;;;22.16;31.77;100448.59;1724491;81;21190;-68
2021/05/05 04:02:31;;;;;;;3.85;2.67;;;;;;;22.52;30.76;100457.59;1707555;83;21154;-64
2021/05/05 04:05:00;;;;;;;4.80;3.08;;;;;;;22.87;29.96;100458.82;1707792;83;21657;-66
2021/05/05 04:07:30;;;;;;;3.58;2.60;;;;;;;23.13;29.35;100463.73;1706281;82;21595;-65
2021/05/05 04:09:58;;;;;;;4.00;2.67;;;;;;;23.21;28.70;100459.24;1706745;83;21164;-65
2021/05/05 04:12:28;;;;;;;3.90;2.42;;;;;;;23.26;28.50;100462.73;1706707;83;22577;-65
2021/05/05 04:15:15;;;;;;;3.83;2.45;;;;;;;23.47;28.60;100466.22;1696972;83;21156;-66
2021/05/05 04:18:00;;;;;;;6.45;2.87;;;;;;;23.84;27.91;100456.45;1706562;82;21255;-66
2021/05/05 04:20:46;;;;;;;3.75;2.65;;;;;;;24.11;27.23;100466.28;1706447;83;21153;-66
2021/05/05 04:23:31;;;;;;;3.47;2.42;;;;;;;24.32;27.03;100465.73;1706812;82;21272;-65
2021/05/05 04:26:19;;;;;;;3.25;2.37;;;;;;;24.63;26.68;100468.36;1708404;82;21366;-66
2021/05/05 04:28:48;;;;;;;4.97;2.77;;;;;;;24.86;26.39;100470.95;1706769;83;21193;-65
2021/05/05 04:31:16;;;;;;;4.12;2.83;;;;;;;25.12;26.16;100471.13;1707497;83;21133;-66
2021/05/05 04:33:46;;;;;;;3.87;2.90;;;;;;;25.45;25.94;100471.46;1706651;83;21181;-65
2021/05/05 04:36:14;;;;;;;4.17;2.90;;;;;;;25.82;25.35;100466.17;1697108;83;21196;-67
2021/05/05 04:38:42;;;;;;;4.40;3.20;;;;;;;26.03;25.08;100469.48;1706904;83;22272;-66
2021/05/05 04:41:11;;;;;;;4.70;2.90;;;;;;;26.18;25.09;100475.48;1707241;83;21169;-65
2021/05/05 04:43:39;;;;;;;5.80;4.35;;;;;;;26.35;24.73;100474.23;1709415;82;21573;-65
2021/05/05 04:46:07;;;;;;;5.60;3.60;;;;;;;26.52;24.80;100477.31;1710208;82;21145;-67
2021/05/05 04:48:36;;;;;;;3.67;3.08;;;;;;;26.86;24.21;100481.74;1714164;82;21212;-66
2021/05/05 04:51:06;;;;;;;5.15;2.55;;;;;;;26.93;24.03;100484.84;1707663;83;21473;-66
2021/05/05 04:53:34;;;;;;;4.45;2.70;;;;;;;26.99;24.14;100480.23;1710569;82;21050;-65
2021/05/05 04:56:03;;;;;;;6.78;3.12;;;;;;;27.20;23.97;100488.81;1706869;82;21026;-66
2021/05/05 04:58:32;;;;;;;5.83;3.27;;;;;;;27.43;23.71;100483.14;1705552;82;21236;-67
2021/05/05 05:01:00;;;;;;;5.53;2.75;;;;;;;27.45;23.59;100487.13;1707644;83;21207;-65
2021/05/05 05:03:28;;;;;;;5.72;2.65;;;;;;;27.55;23.57;100492.34;1706704;83;22264;-65
2021/05/05 05:05:57;;;;;;;5.00;2.80;;;;;;;27.63;23.40;100489.55;1707739;83;21620;-66
2021/05/05 05:08:25;;;;;;;3.37;2.62;;;;;;;27.64;23.45;100494.59;1705837;83;21165;-67
2021/05/05 05:10:53;;;;;;;4.58;3.00;;;;;;;27.66;23.35;100492.98;1707741;83;21459;-65
2021/05/05 05:13:21;;;;;;;4.55;3.00;;;;;;;27.68;23.30;100494.02;1707017;83;21180;-65
2021/05/05 05:15:49;;;;;;;4.40;2.77;;;;;;;27.76;23.37;100493.39;1706668;83;21200;-65
2021/05/05 05:18:18;;;;;;;6.80;3.40;;;;;;;27.88;23.27;100489.19;1697141;83;21267;-67
2021/05/05 05:20:46;;;;;;;5.30;3.10;;;;;;;28.07;23.26;100486.98;1704602;82;21518;-65
2021/05/05 05:23:14;;;;;;;4.08;3.30;;;;;;;28.41;23.17;100485.88;1707608;82;21547;-65
2021/05/05 05:25:42;;;;;;;5.95;3.30;;;;;;;28.63;22.56;100487.87;1706774;83;21501;-67
2021/05/05 05:28:11;;;;;;;5.78;2.95;;;;;;;28.73;22.67;100485.80;1704686;83;21273;-67
2021/05/05 05:30:40;;;;;;;3.08;2.10;;;;;;;28.92;22.14;100477.63;1697184;83;21970;-65
2021/05/05 05:33:08;;;;;;;5.85;2.80;;;;;;;28.91;21.82;100473.92;1706420;83;21078;-66
2021/05/05 05:35:37;;;;;;;3.65;2.50;;;;;;;28.81;22.09;100476.25;1706516;83;21167;-66
2021/05/05 05:38:06;;;;;;;3.85;2.67;;;;;;;28.89;21.67;100468.84;1706405;83;21229;-66
2021/05/05 05:40:34;;;;;;;3.25;2.40;;;;;;;28.97;21.57;100465.44;1706242;83;22014;-65
2021/05/05 05:43:03;;;;;;;4.47;2.25;;;;;;;29.04;21.27;100464.52;1705824;82;21232;-65
2021/05/05 05:45:32;;;;;;;3.42;2.20;;;;;;;29.10;21.26;100467.89;1707270;83;21551;-65
2021/05/05 05:48:00;;;;;;;5.22;2.12;;;;;;;29.16;21.42;100475.28;1705561;83;21370;-66
2021/05/05 05:50:29;;;;;;;2.90;2.12;;;;;;;29.34;21.14;100468.41;1706427;83;21133;-66
2021/05/05 05:52:57;;;;;;;4.30;2.35;;;;;;;29.35;21.09;100466.52;1708721;82;21252;-66
2021/05/05 05:55:29;;;;;;;5.53;2.12;;;;;;;29.46;20.99;100462.50;1715021;82;21090;-66
2021/05/05 05:57:57;;;;;;;3.50;2.22;;;;;;;29.41;20.31;100460.50;1709459;82;21489;-66
2021/05/05 06:00:25;;;;;;;3.05;1.52;;;;;;;29.34;20.11;100472.99;1706073;82;21512;-64
2021/05/05 06:02:54;;;;;;;2.70;1.87;;;;;;;29.37;19.79;100467.58;1709305;82;21564;-64
2021/05/05 06:05:23;;;;;;;3.02;1.77;;;;;;;29.21;19.94;100473.81;1707419;82;22081;-66
2021/05/05 06:07:51;;;;;;;2.12;1.42;;;;;;;29.06;20.02;100468.25;1706996;82;21038;-64
2021/05/05 06:10:20;;;;;;;2.17;1.70;;;;;;;28.93;19.89;100473.05;1706098;83;21671;-64
2021/05/05 06:12:48;;;;;;;2.47;1.60;;;;;;;28.71;20.39;100473.77;1708165;82;21196;-66
2021/05/05 06:15:17;;;;;;;2.62;1.40;;;;;;;28.83;20.71;100478.89;1707825;82;21078;-66
2021/05/05 06:17:47;;;;;;;5.30;1.77;;;;;;;29.03;19.97;100479.59;1707456;82;21274;-66
2021/05/05 06:20:16;;;;;;;2.70;1.40;;;;;;;29.03;19.97;100479.59;1700496;83;21169;-64
2021/05/05 06:22:44;;;;;;;8.60;1.87;;;;;;;29.04;19.31;100475.25;1710679;82;21449;-65
2021/05/05 06:25:12;;;;;;;2.35;1.72;;;;;;;29.00;19.07;100472.13;1714155;82;20943;-66
2021/05/05 06:27:41;;;;;;;1.95;1.60;;;;;;;28.85;19.06;100478.58;1710962;82;21550;-67
2021/05/05 06:30:11;;;;;;;3.65;1.67;;;;;;;28.39;19.34;100474.67;1707556;81;22015;-66
2021/05/05 06:32:40;;;;;;;2.17;1.82;;;;;;;27.95;19.55;100485.31;1709843;82;21596;-64
2021/05/05 06:35:10;;;;;;;3.72;1.42;;;;;;;27.63;19.44;100484.98;1704713;81;21172;-65
2021/05/05 06:37:38;;;;;;;2.40;1.57;;;;;;;27.30;19.81;100473.41;1706823;82;21623;-66
2021/05/05 06:40:07;;;;;;;2.33;1.65;;;;;;;27.05;20.16;100471.04;1710894;82;22554;-66
2021/05/05 06:42:35;;;;;;;2.20;1.75;;;;;;;26.81;20.41;100466.53;1707413;82;21381;-66
2021/05/05 06:45:06;;;;;;;2.47;1.50;;;;;;;26.66;20.38;100468.05;1710169;82;21089;-66
2021/05/05 06:47:34;;;;;;;3.17;1.62;;;;;;;26.65;20.75;100469.93;1716765;82;21236;-67
2021/05/05 06:50:05;;;;;;;4.50;1.80;;;;;;;26.82;20.02;100472.16;1705763;81;21594;-66
2021/05/05 06:52:33;;;;;;;2.00;1.50;;;;;;;26.80;20.05;100469.50;1695376;83;21201;-66
2021/05/05 06:55:01;;;;;;;2.22;1.30;;;;;;;26.82;19.96;100470.81;1707429;81;21546;-66
2021/05/05 06:57:30;;;;;;;2.70;1.50;;;;;;;26.61;19.79;100473.46;1708312;82;21566;-67
2021/05/05 07:00:00;;;;;;;2.05;1.60;;;;;;;26.30;19.90;100472.42;1707489;81;21746;-67
2021/05/05 07:02:28;;;;;;;4.80;1.62;;;;;;;26.08;19.92;100472.89;1709064;82;21414;-65
2021/05/05 07:04:58;;;;;;;4.08;2.40;;;;;;;26.01;20.79;100462.27;1711077;81;21575;-67
2021/05/05 07:07:30;;;;;;;2.67;1.50;;;;;;;26.01;20.79;100462.27;1710196;82;21548;-67
2021/05/05 07:09:58;;;;;;;3.95;2.00;;;;;;;26.17;20.37;100465.05;1710120;82;21496;-65
2021/05/05 07:12:27;;;;;;;4.90;1.92;;;;;;;26.45;20.37;100474.14;1706841;82;21074;-67
2021/05/05 07:14:55;;;;;;;2.52;1.80;;;;;;;26.52;20.09;100460.45;1708877;82;21197;-66
2021/05/05 07:17:24;;;;;;;2.70;1.60;;;;;;;26.44;19.74;100462.66;1711488;82;21168;-69
2021/05/05 07:19:53;;;;;;;2.17;1.40;;;;;;;26.13;20.41;100460.80;1707982;82;22667;-67
2021/05/05 07:22:22;;;;;;;2.37;1.60;;;;;;;26.00;20.44;100466.82;1707571;82;21726;-66
2021/05/05 07:24:50;;;;;;;4.40;1.60;;;;;;;25.73;21.09;100461.94;1713779;81;21149;-66
2021/05/05 07:27:19;;;;;;;3.02;1.77;;;;;;;25.72;21.54;100465.66;1703163;81;21659;-67
2021/05/05 07:29:47;;;;;;;2.70;1.87;;;;;;;25.81;21.17;100457.91;1707166;82;21090;-67
2021/05/05 07:32:16;;;;;;;3.37;1.67;;;;;;;25.91;20.66;100456.46;1709490;81;21212;-66
2021/05/05 07:34:44;;;;;;;2.35;1.37;;;;;;;25.91;20.68;100458.63;1702004;82;21523;-66
2021/05/05 07:37:18;;;;;;;2.00;1.50;;;;;;;25.94;20.68;100450.02;1715285;81;21129;-67
2021/05/05 07:42:37;;;;;;;2.55;1.50;;;;;;;26.29;20.33;100449.45;1671822;83;21467;-65
2021/05/05 07:48:38;;;;;;;3.00;1.40;;;;;;;26.08;20.59;100450.17;1674790;84;21193;-66
2021/05/05 07:50:12;;;;;;;5.37;1.72;;;;;;;26.09;20.58;100453.10;1642888;84;21138;-64
2021/05/05 07:52:40;;;;;;;1.92;1.30;;;;;;;26.11;20.73;100447.49;1673935;84;21130;-67
2021/05/05 07:55:09;;;;;;;2.08;1.40;;;;;;;26.35;20.32;100440.28;1667540;84;21164;-69
2021/05/05 07:57:37;;;;;;;2.10;1.30;;;;;;;26.52;20.69;100431.86;1675615;84;22478;-66
2021/05/05 08:00:06;;;;;;;3.08;1.70;;;;;;;26.55;19.92;100434.48;1671734;84;21213;-68
2021/05/05 08:02:36;;;;;;;2.20;1.35;;;;;;;26.31;20.14;100434.46;1671658;84;21204;-65
2021/05/05 08:05:07;;;;;;;3.58;1.80;;;;;;;26.03;20.26;100437.42;1666410;84;21723;-66
2021/05/05 08:07:35;;;;;;;3.67;1.60;;;;;;;25.98;20.58;100434.23;1660850;84;21465;-65
2021/05/05 08:10:06;;;;;;;2.77;1.30;;;;;;;26.09;20.30;100427.72;1666681;84;22170;-67
2021/05/05 08:12:35;;;;;;;1.80;1.27;;;;;;;26.09;20.32;100425.59;1657565;84;21502;-66
2021/05/05 08:15:05;;;;;;;2.20;1.30;;;;;;;25.95;20.58;100428.94;1657410;84;21122;-67
2021/05/05 08:17:33;;;;;;;2.23;1.43;;;;;;;25.83;20.79;100428.48;1658241;84;22216;-67
2021/05/05 08:20:04;;;;;;;2.63;1.50;;;;;;;25.72;20.95;100421.09;1655338;84;21137;-66
2021/05/05 08:22:34;;;;;;;3.92;1.72;;;;;;;25.55;21.13;100428.70;1658162;84;22155;-67
2021/05/05 08:25:03;;;;;;;2.57;1.20;;;;;;;25.45;21.23;100426.88;1662678;84;21236;-66
2021/05/05 08:27:32;;;;;;;3.90;1.30;;;;;;;25.42;21.67;100435.98;1659430;84;21667;-67
2021/05/05 08:30:01;;;;;;;2.13;1.40;;;;;;;25.59;21.23;100424.94;1657734;84;21110;-66
2021/05/05 08:32:29;;;;;;;2.07;1.20;;;;;;;25.76;21.00;100422.67;1658878;84;21110;-66
2021/05/05 08:34:58;;;;;;;2.90;1.30;;;;;;;25.81;20.81;100422.64;1661316;84;21396;-67
2021/05/05 08:37:27;;;;;;;2.27;1.30;;;;;;;25.80;20.72;100412.23;1649151;84;21420;-67
2021/05/05 08:39:55;;;;;;;3.40;1.30;;;;;;;25.76;20.85;100418.66;1659730;84;21382;-66
2021/05/05 08:42:24;;;;;;;2.03;1.20;;;;;;;25.66;20.50;100413.40;1664503;84;21118;-66
2021/05/05 08:44:53;;;;;;;4.10;1.83;;;;;;;25.65;20.47;100414.48;1655305;84;21114;-67
2021/05/05 08:47:22;;;;;;;2.37;1.30;;;;;;;25.63;20.93;100405.95;1666815;84;21221;-69
2021/05/05 08:49:50;;;;;;;2.20;1.20;;;;;;;25.70;20.64;100398.41;1657537;84;21197;-66
2021/05/05 08:52:20;;;;;;;3.27;1.20;;;;;;;25.92;20.86;100396.11;1662331;84;21070;-67
2021/05/05 08:54:49;;;;;;;3.07;1.47;;;;;;;26.15;20.75;100387.86;1659694;85;21168;-68
2021/05/05 08:57:18;;;;;;;4.03;1.50;;;;;;;26.05;20.17;100393.84;1650140;85;21249;-68
2021/05/05 08:59:48;;;;;;;3.98;1.20;;;;;;;25.68;20.60;100396.03;1655413;84;22157;-67
2021/05/05 09:02:18;;;;;;;2.83;1.23;;;;;;;25.33;20.88;100389.63;1656594;84;21303;-68
2021/05/05 09:04:57;;;;;;;2.97;1.23;;;;;;;25.11;21.30;100396.16;1625141;86;21233;-66
2021/05/05 09:07:41;;;;;;;2.63;1.30;;;;;;;25.23;21.29;100393.17;1625769;86;21134;-64
2021/05/05 09:10:17;;;;;;;4.90;1.20;;;;;;;25.36;20.90;100387.20;1626818;87;21647;-67
2021/05/05 09:12:50;;;;;;;2.50;1.10;;;;;;;25.40;20.92;100386.90;1627806;86;21125;-66
2021/05/05 09:15:24;;;;;;;2.17;1.10;;;;;;;25.46;20.89;100382.34;1621727;85;21169;-67
2021/05/05 09:17:55;;;;;;;5.57;1.83;;;;;;;25.58;20.71;100380.09;1637729;86;21684;-67
2021/05/05 09:20:35;;;;;;;2.27;0.93;;;;;;;25.74;20.52;100371.41;1635907;86;21614;-65
2021/05/05 09:23:05;;;;;;;2.03;1.00;;;;;;;25.69;20.89;100374.92;1639708;85;21171;-66
2021/05/05 09:25:38;;;;;;;4.83;2.03;;;;;;;25.62;20.76;100383.00;1634347;86;21237;-67
2021/05/05 09:28:16;;;;;;;2.97;1.37;;;;;;;25.38;21.08;100383.73;1635123;85;21218;-66
2021/05/05 09:30:54;;;;;;;2.43;1.30;;;;;;;25.34;21.31;100375.98;1635062;85;21257;-66
2021/05/05 09:33:33;;;;;;;7.30;1.30;;;;;;;25.50;21.15;100371.90;1629132;85;21176;-69
2021/05/05 09:36:05;;;;;;;2.87;1.10;;;;;;;25.68;20.37;100377.86;1645828;85;21165;-66
2021/05/05 09:38:45;;;;;;;5.07;1.17;;;;;;;25.60;20.33;100377.92;1634779;85;21728;-67
2021/05/05 09:41:25;;;;;;;2.50;1.27;;;;;;;25.47;20.57;100376.70;1638940;85;21262;-68
2021/05/05 09:43:59;;;;;;;4.93;1.30;;;;;;;25.56;21.50;100377.44;1635680;85;21636;-69
2021/05/05 09:46:43;;;;;;;4.57;1.40;;;;;;;25.73;21.40;100377.83;1629766;85;21167;-67
2021/05/05 09:49:27;;;;;;;3.40;1.60;;;;;;;25.90;21.09;100383.56;1642070;85;21156;-67
2021/05/05 09:51:59;;;;;;;3.33;1.23;;;;;;;25.96;20.12;100371.77;1627100;86;21220;-67
2021/05/05 09:54:47;;;;;;;2.73;1.13;;;;;;;25.82;20.34;100367.36;1644121;85;21210;-67
2021/05/05 09:57:29;;;;;;;3.93;1.30;;;;;;;25.69;20.75;100374.13;1632696;85;22365;-67
2021/05/05 10:00:17;;;;;;;3.47;1.13;;;;;;;25.56;21.24;100368.89;1637672;86;21587;-68
2021/05/05 10:02:49;;;;;;;2.50;1.50;;;;;;;25.45;21.21;100367.38;1646331;84;21211;-68
2021/05/05 10:05:23;;;;;;;3.37;1.20;;;;;;;25.39;21.24;100370.64;1634850;85;22141;-66
2021/05/05 10:07:59;;;;;;;3.00;1.20;;;;;;;25.44;21.32;100376.47;1638994;85;21054;-66
2021/05/05 10:10:31;;;;;;;3.17;1.40;;;;;;;25.46;20.88;100361.78;1637971;85;21165;-68
2021/05/05 10:13:03;;;;;;;1.93;1.10;;;;;;;25.46;20.66;100371.66;1646165;84;21213;-68
2021/05/05 10:15:36;;;;;;;3.77;1.40;;;;;;;25.38;20.50;100362.37;1637841;86;21228;-69
2021/05/05 10:18:07;;;;;;;3.85;1.42;;;;;;;25.29;20.88;100366.70;1642115;86;21389;-69
2021/05/05 10:20:35;;;;;;;2.23;1.00;;;;;;;25.23;21.04;100365.95;1638107;86;21995;-70
2021/05/05 10:23:04;;;;;;;3.00;1.27;;;;;;;25.28;20.95;100357.11;1642957;84;21611;-68
2021/05/05 10:25:33;;;;;;;2.70;1.17;;;;;;;25.40;20.92;100364.22;1639081;86;21634;-66
2021/05/05 10:28:03;;;;;;;3.00;1.30;;;;;;;25.57;20.99;100357.66;1640941;85;21156;-69
2021/05/05 10:30:34;;;;;;;2.37;1.13;;;;;;;25.72;20.95;100351.67;1645405;86;21540;-67
2021/05/05 10:33:07;;;;;;;1.93;1.10;;;;;;;25.82;21.09;100343.33;1675619;83;21125;-66
2021/05/05 10:35:35;;;;;;;1.67;1.07;;;;;;;26.05;20.93;100331.06;1676216;84;21034;-69
2021/05/05 10:38:04;;;;;;;3.33;1.60;;;;;;;26.09;20.32;100341.44;1676597;83;21216;-68
2021/05/05 10:40:36;;;;;;;6.63;1.77;;;;;;;25.89;19.87;100335.23;1678175;83;21236;-66
2021/05/05 10:43:06;;;;;;;2.40;1.40;;;;;;;25.63;20.17;100331.20;1677482;84;21866;-66
2021/05/05 10:45:41;;;;;;;4.62;1.95;;;;;;;25.51;20.19;100322.77;1677168;83;21676;-66
2021/05/05 10:48:17;;;;;;;4.57;1.53;;;;;;;25.40;20.37;100318.84;1675716;84;21173;-63
2021/05/05 10:50:57;;;;;;;2.70;1.53;;;;;;;25.38;21.07;100321.53;1681222;83;20948;-67
2021/05/05 10:53:43;;;;;;;2.23;1.13;;;;;;;25.44;21.11;100315.88;1659357;85;21113;-67
2021/05/05 10:56:27;;;;;;;2.67;1.10;;;;;;;25.58;20.30;100321.91;1652997;85;22157;-68
2021/05/05 10:59:03;;;;;;;2.23;1.33;;;;;;;25.56;20.21;100312.04;1643166;85;21821;-68
2021/05/05 11:01:42;;;;;;;5.03;1.60;;;;;;;25.55;20.54;100306.45;1677906;83;21157;-67
2021/05/05 11:04:14;;;;;;;2.27;1.20;;;;;;;25.67;20.71;100292.97;1698589;82;21168;-66
2021/05/05 11:06:48;;;;;;;2.20;1.20;;;;;;;25.81;20.92;100291.80;1708698;82;21568;-66
2021/05/05 11:09:23;;;;;;;6.03;1.47;;;;;;;25.91;20.54;100298.37;1724224;82;22086;-66
2021/05/05 11:11:52;;;;;;;3.60;1.37;;;;;;;25.79;20.42;100294.48;1706335;82;21710;-68
2021/05/05 11:14:32;;;;;;;3.93;1.33;;;;;;;25.60;20.46;100285.83;1712972;82;21596;-68
2021/05/05 11:17:02;;;;;;;2.00;1.20;;;;;;;25.57;20.65;100286.93;1713147;82;21149;-67
2021/05/05 11:19:43;;;;;;;2.37;1.12;;;;;;;25.45;20.83;100289.44;1712304;82;21141;-66
2021/05/05 11:22:32;;;;;;;6.67;2.53;;;;;;;25.44;21.50;100295.06;1713219;82;22287;-66
2021/05/05 11:25:22;;;;;;;3.60;1.63;;;;;;;25.48;20.98;100298.22;1711774;82;21061;-68
2021/05/05 11:27:51;;;;;;;5.43;1.50;;;;;;;25.40;20.81;100297.50;1716328;82;21142;-68
2021/05/05 11:30:33;;;;;;;17.77;2.63;;;;;;;25.11;21.22;100290.80;1709037;82;21153;-68
2021/05/05 11:33:01;;;;;;;5.43;1.20;;;;;;;24.87;21.04;100288.02;1707005;82;21231;-66
2021/05/05 11:35:31;;;;;;;3.63;1.90;;;;;;;24.61;21.72;100293.25;1707601;83;21567;-67
2021/05/05 11:38:19;;;;;;;6.77;1.67;;;;;;;24.63;21.63;100289.24;1708585;82;21840;-70
2021/05/05 11:40:53;;;;;;;3.80;2.00;;;;;;;24.64;21.37;100286.04;1711389;81;21204;-68
2021/05/05 11:43:22;;;;;;;52.93;5.17;;;;;;;24.54;21.54;100284.21;1706162;82;21198;-67
2021/05/05 11:45:55;;;;;;;3.08;1.55;;;;;;;24.59;21.58;100283.41;1707215;82;21577;-69
2021/05/05 11:48:31;;;;;;;3.90;1.80;;;;;;;24.70;21.02;100274.25;1708434;82;21521;-66
2021/05/05 11:51:01;;;;;;;5.77;2.00;;;;;;;24.60;21.30;100279.67;1707561;82;21132;-68
2021/05/05 11:53:35;;;;;;;5.60;1.80;;;;;;;24.51;21.75;100283.45;1706062;82;21341;-69
2021/05/05 11:56:21;;;;;;;3.33;1.73;;;;;;;24.46;21.94;100277.59;1708054;81;21642;-66
2021/05/05 11:58:56;;;;;;;3.20;1.70;;;;;;;24.54;21.61;100271.42;1697614;82;21730;-68
2021/05/05 12:01:39;;;;;;;5.83;2.00;;;;;;;24.61;21.67;100270.59;1794877;79;27241;-66
2021/05/05 12:04:13;;;;;;;4.63;2.00;;;;;;;24.51;21.61;100278.92;1715611;81;21102;-67
2021/05/05 12:06:50;;;;;;;3.33;1.87;;;;;;;24.37;21.61;100279.77;1734439;82;22609;-69
2021/05/05 12:09:36;;;;;;;5.70;2.00;;;;;;;24.21;21.60;100276.38;1717460;82;21582;-69
2021/05/05 12:12:29;;;;;;;4.83;1.93;;;;;;;24.10;21.89;100278.81;1710313;83;21097;-68
2021/05/05 12:15:06;;;;;;;5.70;1.90;;;;;;;23.97;22.20;100271.64;1712377;82;21355;-65
2021/05/05 12:17:41;;;;;;;3.20;1.73;;;;;;;23.91;22.29;100275.95;1702771;83;21042;-68
2021/05/05 12:20:13;;;;;;;2.83;1.82;;;;;;;23.81;22.11;100268.77;1711088;82;22526;-67
2021/05/05 12:22:57;;;;;;;2.90;1.70;;;;;;;23.70;22.16;100272.52;1708030;83;21236;-66
2021/05/05 12:25:30;;;;;;;4.73;2.00;;;;;;;23.66;22.67;100266.12;1640008;83;21053;-68
2021/05/05 12:28:13;;;;;;;3.03;1.83;;;;;;;23.78;22.26;100262.66;1702690;83;21125;-67
2021/05/05 12:30:55;;;;;;;4.07;1.97;;;;;;;23.87;22.23;100254.39;1705558;83;21045;-67
2021/05/05 12:33:36;;;;;;;4.70;1.93;;;;;;;23.97;22.45;100250.34;1705110;83;21374;-65
2021/05/05 12:36:13;;;;;;;4.53;1.80;;;;;;;24.05;22.26;100254.31;1734421;81;21066;-65
2021/05/05 12:38:46;;;;;;;3.93;1.70;;;;;;;24.07;22.31;100252.19;1714715;83;21599;-67
2021/05/05 12:41:17;;;;;;;4.47;1.77;;;;;;;24.08;22.20;100251.64;1699835;83;21186;-66
2021/05/05 12:43:48;;;;;;;3.63;2.13;;;;;;;24.11;22.60;100249.23;1719801;83;21587;-63
2021/05/05 12:46:30;;;;;;;3.13;1.83;;;;;;;24.13;22.33;100240.96;1700744;83;21438;-66
2021/05/05 12:48:59;;;;;;;4.80;1.70;;;;;;;24.12;22.50;100241.50;1701577;83;21153;-66
2021/05/05 12:51:32;;;;;;;3.20;1.80;;;;;;;24.07;22.29;100240.20;1703384;82;21630;-67
2021/05/05 12:54:02;;;;;;;3.90;1.57;;;;;;;24.03;22.51;100240.48;1723523;81;21133;-67
2021/05/05 12:56:46;;;;;;;4.17;2.20;;;;;;;24.02;22.24;100239.69;1703663;83;21944;-70
2021/05/05 12:59:22;;;;;;;3.73;1.97;;;;;;;23.92;21.99;100238.93;1704533;82;21170;-65
2021/05/05 13:02:05;;;;;;;3.27;1.97;;;;;;;23.67;22.09;100234.47;1706029;83;21587;-69
2021/05/05 13:04:37;;;;;;;7.00;2.20;;;;;;;23.40;22.43;100228.12;1683674;85;21194;-66
2021/05/05 13:07:06;;;;;;;5.83;2.30;;;;;;;23.25;22.96;100230.26;1763239;81;21583;-66
2021/05/05 13:09:34;;;;;;;3.00;1.93;;;;;;;23.27;23.05;100230.80;1752543;81;21090;-68
2021/05/05 13:15:07;;;;;;;5.63;2.10;;;;;;;23.33;22.76;100222.27;1812752;78;26761;-67
2021/05/05 13:17:45;;;;;;;3.27;1.70;;;;;;;23.28;23.02;100220.42;1792019;78;20935;-66
2021/05/05 13:31:42;;;;;;;5.17;1.77;;;;;;;22.77;23.77;100215.09;1805631;79;21666;-66
2021/05/05 13:34:12;;;;;;;5.30;2.20;;;;;;;22.72;23.97;100213.75;1798154;79;21203;-67
2021/05/05 13:36:59;;;;;;;4.17;1.60;;;;;;;22.61;23.62;100212.14;1801666;79;21069;-66
2021/05/05 13:39:36;;;;;;;3.77;1.90;;;;;;;22.47;23.42;100208.67;1741503;80;20972;-68
2021/05/05 13:42:11;;;;;;;7.83;2.20;;;;;;;22.34;24.13;100210.49;1735510;81;21248;-65
2021/05/05 13:44:48;;;;;;;4.17;2.40;;;;;;;22.21;24.31;100213.13;1739813;81;21076;-68
2021/05/05 13:47:26;;;;;;;3.13;1.57;;;;;;;22.13;24.39;100207.50;1744231;81;21291;-65
2021/05/05 13:49:56;;;;;;;4.57;1.80;;;;;;;22.06;24.40;100203.22;1770737;80;21526;-66
2021/05/05 13:52:25;;;;;;;4.53;2.10;;;;;;;22.01;25.14;100204.53;1736408;81;29007;-65
2021/05/05 13:54:55;;;;;;;2.65;1.40;;;;;;;21.97;24.90;100202.13;1728608;82;21584;-65
2021/05/05 13:57:24;;;;;;;8.90;2.73;;;;;;;21.89;24.82;100205.80;1772379;80;21476;-68
2021/05/05 13:59:54;;;;;;;3.47;1.47;;;;;;;21.80;25.17;100205.50;1778607;80;22505;-65
2021/05/05 14:02:22;;;;;;;4.40;1.77;;;;;;;21.75;24.98;100205.48;1743891;81;21552;-67
2021/05/05 14:04:50;;;;;;;3.17;1.53;;;;;;;21.71;25.36;100205.73;1743908;82;21085;-66
2021/05/05 14:07:18;;;;;;;3.77;1.97;;;;;;;21.66;25.40;100200.38;1724178;82;21926;-63
2021/05/05 14:09:48;;;;;;;3.23;1.90;;;;;;;21.58;25.85;100201.13;1728929;81;21496;-65
2021/05/05 14:12:16;;;;;;;4.87;1.70;;;;;;;21.56;25.77;100199.28;1720803;80;21385;-65
2021/05/05 14:14:45;;;;;;;4.07;1.73;;;;;;;21.50;25.49;100189.69;1743312;81;21165;-68
2021/05/05 14:17:13;;;;;;;4.07;1.60;;;;;;;21.45;25.79;100195.50;1724703;82;21219;-67
2021/05/05 14:19:46;;;;;;;3.40;1.60;;;;;;;21.41;25.78;100197.87;1720867;82;21568;-63
2021/05/05 14:22:17;;;;;;;4.10;1.90;;;;;;;21.30;25.94;100194.84;1729188;82;21145;-65
2021/05/05 14:24:45;;;;;;;4.43;1.93;;;;;;;21.16;26.39;100189.70;1731054;81;21737;-63
2021/05/05 14:27:13;;;;;;;2.80;1.57;;;;;;;21.09;26.58;100190.71;1732778;82;21215;-68
2021/05/05 14:29:43;;;;;;;4.90;1.87;;;;;;;20.99;26.72;100193.31;1732709;82;21114;-65
2021/05/05 14:32:12;;;;;;;4.37;2.10;;;;;;;20.99;26.72;100193.31;1738385;82;21799;-67
2021/05/05 14:34:40;;;;;;;2.70;1.57;;;;;;;20.95;26.88;100197.52;1756852;80;21667;-65
2021/05/05 14:37:09;;;;;;;4.57;1.63;;;;;;;20.90;26.79;100193.48;1733790;82;23476;-68
2021/05/05 14:39:37;;;;;;;4.70;1.87;;;;;;;20.76;26.89;100194.94;1717632;82;21529;-67
2021/05/05 14:42:11;;;;;;;3.33;1.60;;;;;;;20.61;27.22;100186.36;1777368;78;21224;-68
2021/05/05 14:44:44;;;;;;;6.60;1.90;;;;;;;20.53;27.23;100186.79;1781172;79;21062;-69
2021/05/05 14:49:55;;;;;;;4.13;1.70;;;;;;;20.26;27.43;100198.66;1735508;81;21200;-66
2021/05/05 14:52:24;;;;;;;9.23;2.13;;;;;;;20.09;27.15;100195.58;1733624;82;21019;-64
2021/05/05 14:54:52;;;;;;;3.10;1.27;;;;;;;19.96;27.73;100191.17;1748512;81;21574;-67
2021/05/05 14:57:24;;;;;;;3.37;1.53;;;;;;;19.88;27.56;100185.79;1767273;80;21665;-65
2021/05/05 14:59:51;;;;;;;4.65;1.80;;;;;;;19.80;27.93;100184.38;1776856;79;21591;-68
2021/05/05 15:02:19;;;;;;;5.47;1.90;;;;;;;19.69;28.39;100182.11;1777382;79;21384;-65
2021/05/05 15:04:48;;;;;;;7.20;2.13;;;;;;;19.59;28.69;100186.46;1786927;79;21002;-67
2021/05/05 15:07:17;;;;;;;4.70;1.70;;;;;;;19.51;28.72;100192.14;1715606;82;21584;-66